createdAt,value
2019-05-11T00:02:08.803Z,95825.75
2019-05-11T00:04:35.541Z,95833.05
2019-05-11T00:07:05.170Z,95823.63
2019-05-11T00:09:31.919Z,95824.19
2019-05-11T00:11:58.675Z,95820.98
2019-05-11T00:14:25.429Z,95812.12
2019-05-11T00:16:52.217Z,95818.88
2019-05-11T00:19:18.977Z,95818.09
2019-05-11T00:21:45.766Z,95810.05
2019-05-11T00:24:12.546Z,95804.38
2019-05-11T00:26:39.330Z,95813.80
2019-05-11T00:29:06.124Z,95807.61
2019-05-11T00:31:32.881Z,95804.11
2019-05-11T00:33:59.672Z,95807.08
2019-05-11T00:36:26.416Z,95817.84
2019-05-11T00:38:53.153Z,95810.30
2019-05-11T00:41:19.936Z,95803.58
2019-05-11T00:43:46.706Z,95805.20
2019-05-11T00:46:13.542Z,95801.16
2019-05-11T00:48:40.356Z,95803.31
2019-05-11T00:51:07.098Z,95801.44
2019-05-11T00:53:33.899Z,95793.64
2019-05-11T00:56:00.642Z,95789.06
2019-05-11T00:58:27.426Z,95784.22
2019-05-11T01:00:54.186Z,95782.33
2019-05-11T01:03:20.969Z,95784.20
2019-05-11T01:05:47.818Z,95780.70
2019-05-11T01:08:14.640Z,95781.51
2019-05-11T01:10:42.638Z,95787.68
2019-05-11T01:13:09.638Z,95776.38
2019-05-11T01:15:36.402Z,95769.13
2019-05-11T01:18:03.153Z,95765.36
2019-05-11T01:20:29.936Z,95769.92
2019-05-11T01:22:56.732Z,95770.21
2019-05-11T01:25:25.202Z,95765.88
2019-05-11T01:27:51.956Z,95775.80
2019-05-11T01:30:18.719Z,95774.16
2019-05-11T01:32:45.487Z,95776.84
2019-05-11T01:35:12.244Z,95768.23
2019-05-11T01:37:39.007Z,95761.79
2019-05-11T01:40:06.652Z,95753.46
2019-05-11T01:42:33.431Z,95757.24
2019-05-11T01:45:00.151Z,95758.59
2019-05-11T01:47:26.942Z,95760.72
2019-05-11T01:49:53.686Z,95763.64
2019-05-11T01:52:20.458Z,95762.05
2019-05-11T01:54:47.204Z,95758.54
2019-05-11T01:57:13.933Z,95766.11
2019-05-11T01:59:40.553Z,95773.92
2019-05-11T02:02:07.188Z,95797.02
2019-05-11T02:04:33.812Z,95788.63
2019-05-11T02:07:00.497Z,95746.88
2019-05-11T02:09:27.211Z,95707.01
2019-05-11T02:11:53.847Z,95722.29
2019-05-11T02:14:20.559Z,95741.13
2019-05-11T02:16:47.185Z,95731.13
2019-05-11T02:19:13.807Z,95726.53
2019-05-11T02:21:40.531Z,95728.89
2019-05-11T02:24:07.163Z,95704.41
2019-05-11T02:26:33.796Z,95686.65
2019-05-11T02:29:00.522Z,95694.99
2019-05-11T02:31:27.136Z,95703.36
2019-05-11T02:33:53.785Z,95710.09
2019-05-11T02:36:20.472Z,95715.21
2019-05-11T02:38:47.081Z,95707.98
2019-05-11T02:41:13.712Z,95713.11
2019-05-11T02:43:40.449Z,95718.23
2019-05-11T02:46:07.275Z,95706.12
2019-05-11T02:48:33.997Z,95707.20
2019-05-11T02:51:00.719Z,95716.28
2019-05-11T02:53:27.929Z,95714.38
2019-05-11T02:55:54.645Z,95704.97
2019-05-11T02:58:21.233Z,95699.05
2019-05-11T03:00:47.871Z,95715.97
2019-05-11T03:03:14.484Z,95706.27
2019-05-11T03:05:41.224Z,95704.08
2019-05-11T03:08:07.919Z,95708.95
2019-05-11T03:10:34.623Z,95695.78
2019-05-11T03:13:01.406Z,95679.66
2019-05-11T03:15:28.116Z,95674.28
2019-05-11T03:17:54.737Z,95689.80
2019-05-11T03:20:21.475Z,95701.56
2019-05-11T03:22:48.097Z,95698.25
2019-05-11T03:25:14.821Z,95681.59
2019-05-11T03:27:41.454Z,95666.81
2019-05-11T03:30:08.098Z,95667.34
2019-05-11T03:32:34.825Z,95673.00
2019-05-11T03:35:01.612Z,95682.69
2019-05-11T03:37:28.364Z,95670.31
2019-05-11T03:39:54.995Z,95679.45
2019-05-11T03:42:21.641Z,95670.82
2019-05-11T03:44:48.231Z,95665.98
2019-05-11T03:47:14.846Z,95673.76
2019-05-11T03:49:41.495Z,95664.36
2019-05-11T03:52:08.223Z,95663.56
2019-05-11T03:54:34.970Z,95659.28
2019-05-11T03:57:01.617Z,95663.06
2019-05-11T03:59:28.323Z,95659.84
2019-05-11T04:01:54.978Z,95667.62
2019-05-11T04:04:21.674Z,95664.91
2019-05-11T04:06:48.309Z,95654.70
2019-05-11T04:09:15.018Z,95651.75
2019-05-11T04:11:41.756Z,95648.28
2019-05-11T04:14:08.471Z,95640.22
2019-05-11T04:16:35.200Z,95637.24
2019-05-11T04:19:01.842Z,95628.58
2019-05-11T04:21:28.463Z,95628.35
2019-05-11T04:23:55.085Z,95624.48
2019-05-11T04:26:21.809Z,95621.62
2019-05-11T04:28:48.424Z,95610.66
2019-05-11T04:31:15.087Z,95607.20
2019-05-11T04:33:41.684Z,95602.86
2019-05-11T04:36:08.306Z,95595.55
2019-05-11T04:38:34.921Z,95588.75
2019-05-11T04:41:01.650Z,95591.93
2019-05-11T04:43:28.368Z,95591.91
2019-05-11T04:45:55.002Z,95582.70
2019-05-11T04:48:21.739Z,95589.76
2019-05-11T04:50:48.354Z,95588.14
2019-05-11T04:53:15.109Z,95583.55
2019-05-11T04:55:41.831Z,95584.63
2019-05-11T04:58:08.442Z,95583.30
2019-05-11T05:00:35.163Z,95578.71
2019-05-11T05:03:01.859Z,95575.50
2019-05-11T05:05:28.491Z,95568.70
2019-05-11T05:08:08.544Z,95574.64
2019-05-11T05:10:24.149Z,95570.06
2019-05-11T05:12:52.968Z,95571.42
2019-05-11T05:15:19.565Z,95570.31
2019-05-11T05:17:46.294Z,95565.35
2019-05-11T05:20:12.998Z,95563.95
2019-05-11T05:22:39.664Z,95567.92
2019-05-11T05:25:06.994Z,95573.05
2019-05-11T05:27:33.656Z,95564.68
2019-05-11T05:30:00.267Z,95567.47
2019-05-11T05:32:26.916Z,95562.89
2019-05-11T05:34:53.619Z,95566.41
2019-05-11T05:37:20.387Z,95568.83
2019-05-11T05:39:47.074Z,95564.42
2019-05-11T05:42:13.694Z,95565.52
2019-05-11T05:44:40.325Z,95568.30
2019-05-11T05:47:07.030Z,95555.39
2019-05-11T05:49:33.661Z,95559.72
2019-05-11T05:52:00.278Z,95553.29
2019-05-11T05:54:27.036Z,95561.39
2019-05-11T05:56:53.640Z,95567.84
2019-05-11T05:59:20.282Z,95573.78
2019-05-11T06:01:47.003Z,95581.11
2019-05-11T06:04:13.616Z,95587.05
2019-05-11T06:06:40.405Z,95582.47
2019-05-11T06:09:07.174Z,95587.33
2019-05-11T06:11:33.832Z,95585.73
2019-05-11T06:14:00.446Z,95595.71
2019-05-11T06:16:27.183Z,95598.67
2019-05-11T06:18:53.810Z,95605.65
2019-05-11T06:21:20.469Z,95612.40
2019-05-11T06:23:47.203Z,95626.22
2019-05-11T06:26:13.841Z,95631.67
2019-05-11T06:28:40.472Z,95628.44
2019-05-11T06:31:07.084Z,95634.37
2019-05-11T06:33:33.839Z,95650.87
2019-05-11T06:36:00.446Z,95655.19
2019-05-11T06:38:27.087Z,95651.65
2019-05-11T06:40:53.794Z,95673.52
2019-05-11T06:43:20.404Z,95656.23
2019-05-11T06:45:47.083Z,95672.41
2019-05-11T06:48:13.707Z,95673.71
2019-05-11T06:50:40.322Z,95675.31
2019-05-11T06:53:07.069Z,95683.93
2019-05-11T06:55:33.769Z,95680.88
2019-05-11T06:58:00.447Z,95675.67
2019-05-11T07:00:27.069Z,95678.38
2019-05-11T07:02:53.755Z,95665.91
2019-05-11T07:05:20.396Z,95665.60
2019-05-11T07:07:48.038Z,95663.69
2019-05-11T07:10:14.842Z,95655.66
2019-05-11T07:12:41.460Z,95657.54
2019-05-11T07:15:08.718Z,95643.75
2019-05-11T07:17:35.416Z,95656.66
2019-05-11T07:20:02.099Z,95665.02
2019-05-11T07:22:28.806Z,95682.25
2019-05-11T07:24:55.431Z,95687.05
2019-05-11T07:27:22.088Z,95693.70
2019-05-11T07:29:48.816Z,95700.45
2019-05-11T07:32:24.813Z,95716.71
2019-05-11T07:34:44.081Z,95731.09
2019-05-11T07:37:10.711Z,95721.33
2019-05-11T07:39:38.297Z,95704.00
2019-05-11T07:42:05.153Z,95693.22
2019-05-11T07:44:38.377Z,95700.58
2019-05-11T07:47:00.314Z,95699.49
2019-05-11T07:49:29.043Z,95709.97
2019-05-11T07:51:55.503Z,95709.87
2019-05-11T07:54:22.128Z,95705.50
2019-05-11T07:56:48.761Z,95702.69
2019-05-11T07:59:15.406Z,95700.66
2019-05-11T08:01:42.121Z,95685.06
2019-05-11T08:04:08.736Z,95686.39
2019-05-11T08:06:35.381Z,95685.00
2019-05-11T08:09:02.201Z,95690.12
2019-05-11T08:11:31.416Z,95703.38
2019-05-11T08:13:58.462Z,95707.39
2019-05-11T08:16:28.221Z,95711.94
2019-05-11T08:18:53.832Z,95709.34
2019-05-11T08:21:20.543Z,95708.89
2019-05-11T08:23:48.291Z,95710.42
2019-05-11T08:26:15.323Z,95716.66
2019-05-11T08:28:41.970Z,95713.56
2019-05-11T08:31:08.613Z,95713.48
2019-05-11T08:33:35.332Z,95710.73
2019-05-11T08:36:01.980Z,95706.75
2019-05-11T08:38:28.704Z,95708.57
2019-05-11T08:40:55.350Z,95705.16
2019-05-11T08:43:22.074Z,95698.98
2019-05-11T08:45:48.753Z,95704.64
2019-05-11T08:48:15.482Z,95698.03
2019-05-11T08:50:42.115Z,95696.36
2019-05-11T08:53:08.867Z,95696.44
2019-05-11T08:55:37.969Z,95691.77
2019-05-11T08:58:04.059Z,95687.00
2019-05-11T09:00:30.681Z,95687.03
2019-05-11T09:02:58.224Z,95679.79
2019-05-11T09:05:25.175Z,95672.02
2019-05-11T09:07:51.891Z,95670.88
2019-05-11T09:10:23.492Z,95670.02
2019-05-11T09:12:50.346Z,95667.69
2019-05-11T09:15:29.898Z,95668.76
2019-05-11T09:17:45.529Z,95668.89
2019-05-11T09:20:12.249Z,95665.19
2019-05-11T09:22:38.891Z,95666.53
2019-05-11T09:25:05.537Z,95673.05
2019-05-11T09:27:32.187Z,95677.48
2019-05-11T09:29:59.150Z,95675.06
2019-05-11T09:32:28.328Z,95680.99
2019-05-11T09:34:54.385Z,95671.72
2019-05-11T09:37:21.037Z,95679.28
2019-05-11T09:39:47.984Z,95679.70
2019-05-11T09:42:14.669Z,95677.48
2019-05-11T09:44:41.923Z,95684.53
2019-05-11T09:47:08.617Z,95689.89
2019-05-11T09:49:46.598Z,95682.00
2019-05-11T09:52:03.977Z,95689.06
2019-05-11T09:54:30.734Z,95682.87
2019-05-11T09:56:57.952Z,95674.11
2019-05-11T09:59:24.702Z,95674.96
2019-05-11T10:01:51.373Z,95676.98
2019-05-11T10:04:18.255Z,95671.87
2019-05-11T10:06:45.009Z,95673.55
2019-05-11T10:09:11.743Z,95671.86
2019-05-11T10:11:39.874Z,95667.73
2019-05-11T10:14:08.370Z,95651.87
2019-05-11T10:16:35.266Z,95651.27
2019-05-11T10:19:01.907Z,95642.59
2019-05-11T10:21:28.641Z,95641.02
2019-05-11T10:23:55.362Z,95641.63
2019-05-11T10:26:22.110Z,95641.91
2019-05-11T10:28:48.736Z,95641.55
2019-05-11T10:31:17.806Z,95628.58
2019-05-11T10:33:44.029Z,95629.30
2019-05-11T10:36:10.678Z,95627.47
2019-05-11T10:38:37.971Z,95622.48
2019-05-11T10:41:05.061Z,95627.78
2019-05-11T10:43:31.695Z,95623.95
2019-05-11T10:45:58.891Z,95626.73
2019-05-11T10:48:28.067Z,95627.65
2019-05-11T10:50:54.239Z,95627.78
2019-05-11T10:53:21.011Z,95637.16
2019-05-11T10:55:48.014Z,95631.24
2019-05-11T10:58:14.802Z,95641.98
2019-05-11T11:00:41.448Z,95635.97
2019-05-11T11:03:08.528Z,95634.47
2019-05-11T11:05:35.448Z,95631.34
2019-05-11T11:08:02.074Z,95640.75
2019-05-11T11:10:28.885Z,95638.53
2019-05-11T11:12:57.691Z,95633.18
2019-05-11T11:15:24.170Z,95632.41
2019-05-11T11:17:50.939Z,95653.75
2019-05-11T11:20:18.666Z,95666.18
2019-05-11T11:22:47.887Z,95674.47
2019-05-11T11:25:14.099Z,95686.44
2019-05-11T11:27:40.776Z,95705.94
2019-05-11T11:30:09.124Z,95702.34
2019-05-11T11:32:38.140Z,95711.41
2019-05-11T11:35:04.587Z,95709.56
2019-05-11T11:37:31.228Z,95702.63
2019-05-11T11:39:58.221Z,95701.89
2019-05-11T11:42:24.999Z,95701.63
2019-05-11T11:44:51.712Z,95698.44
2019-05-11T11:47:21.388Z,95699.27
2019-05-11T11:49:47.564Z,95693.06
2019-05-11T11:52:14.425Z,95693.13
2019-05-11T11:54:41.179Z,95707.45
2019-05-11T11:57:07.885Z,95717.98
2019-05-11T11:59:34.616Z,95715.56
2019-05-11T12:02:01.317Z,95707.45
2019-05-11T12:04:28.412Z,95712.05
2019-05-11T12:06:55.313Z,95713.94
2019-05-11T12:09:21.964Z,95715.56
2019-05-11T12:11:49.127Z,95710.98
2019-05-11T12:14:15.841Z,95720.70
2019-05-11T12:16:42.483Z,95724.22
2019-05-11T12:19:09.492Z,95726.64
2019-05-11T12:21:37.988Z,95728.27
2019-05-11T12:24:04.774Z,95722.09
2019-05-11T12:26:31.532Z,95728.57
2019-05-11T12:28:58.178Z,95727.52
2019-05-11T12:31:25.022Z,95709.17
2019-05-11T12:33:51.785Z,95708.09
2019-05-11T12:36:18.998Z,95725.34
2019-05-11T12:38:45.826Z,95720.22
2019-05-11T12:41:12.470Z,95731.81
2019-05-11T12:43:39.219Z,95739.89
2019-05-11T12:46:08.046Z,95743.67
2019-05-11T12:48:34.421Z,95749.86
2019-05-11T12:51:01.056Z,95752.86
2019-05-11T12:53:28.067Z,95753.38
2019-05-11T12:55:54.891Z,95751.80
2019-05-11T12:58:21.526Z,95755.54
2019-05-11T13:00:48.222Z,95746.92
2019-05-11T13:03:14.910Z,95741.24
2019-05-11T13:05:41.676Z,95741.52
2019-05-11T13:08:08.279Z,95738.80
2019-05-11T13:10:34.862Z,95734.20
2019-05-11T13:13:02.815Z,95727.20
2019-05-11T13:15:29.667Z,95723.70
2019-05-11T13:17:58.116Z,95740.67
2019-05-11T13:20:24.838Z,95751.21
2019-05-11T13:22:51.457Z,95759.32
2019-05-11T13:25:19.255Z,95766.07
2019-05-11T13:27:46.006Z,95771.73
2019-05-11T13:30:12.634Z,95777.13
2019-05-11T13:32:39.282Z,95776.58
2019-05-11T13:35:06.026Z,95775.48
2019-05-11T13:37:32.782Z,95780.34
2019-05-11T13:39:59.436Z,95782.73
2019-05-11T13:42:27.754Z,95795.94
2019-05-11T13:44:54.590Z,95808.33
2019-05-11T13:47:21.346Z,95822.09
2019-05-11T13:49:48.139Z,95822.33
2019-05-11T13:52:14.841Z,95848.98
2019-05-11T13:54:41.549Z,95836.78
2019-05-11T13:57:08.311Z,95854.59
2019-05-11T13:59:34.952Z,95854.59
2019-05-11T14:02:01.706Z,95866.41
2019-05-11T14:04:28.441Z,95857.77
2019-05-11T14:06:55.197Z,95854.72
2019-05-11T14:09:21.887Z,95847.19
2019-05-11T14:11:48.514Z,95854.20
2019-05-11T14:14:15.270Z,95850.45
2019-05-11T14:16:42.029Z,95858.06
2019-05-11T14:19:08.865Z,95857.91
2019-05-11T14:21:35.473Z,95864.95
2019-05-11T14:24:02.098Z,95870.10
2019-05-11T14:26:28.750Z,95881.66
2019-05-11T14:28:55.701Z,95883.24
2019-05-11T14:31:23.065Z,95907.16
2019-05-11T14:33:49.787Z,95901.30
2019-05-11T14:36:18.293Z,95904.48
2019-05-11T14:38:54.652Z,95900.41
2019-05-11T14:41:21.379Z,95908.72
2019-05-11T14:43:48.974Z,95910.76
2019-05-11T14:46:23.121Z,95902.05
2019-05-11T14:48:49.867Z,95914.64
2019-05-11T14:51:17.940Z,95921.27
2019-05-11T14:53:51.465Z,95952.13
2019-05-11T14:56:19.032Z,95946.02
2019-05-11T14:58:52.863Z,95950.39
2019-05-11T15:01:19.620Z,95954.60
2019-05-11T15:03:48.412Z,95946.67
2019-05-11T15:06:24.782Z,95947.55
2019-05-11T15:08:51.412Z,95956.06
2019-05-11T15:11:19.209Z,95961.56
2019-05-11T15:13:53.460Z,95966.38
2019-05-11T15:16:20.127Z,95978.92
2019-05-11T15:18:48.466Z,96004.55
2019-05-11T15:21:25.066Z,96002.84
2019-05-11T15:23:51.691Z,96013.97
2019-05-11T15:26:18.853Z,96018.96
2019-05-11T15:31:57.968Z,96020.67
2019-05-11T15:34:32.570Z,96019.29
2019-05-11T15:36:59.207Z,96021.45
2019-05-11T15:39:25.840Z,96011.76
2019-05-11T15:42:06.492Z,95999.67
2019-05-11T15:44:28.605Z,95976.75
2019-05-11T15:47:02.487Z,95958.23
2019-05-11T15:49:29.198Z,95953.39
2019-05-11T15:51:57.741Z,95958.04
2019-05-11T15:54:34.345Z,95954.30
2019-05-11T15:57:01.097Z,95986.05
2019-05-11T15:59:27.915Z,95979.09
2019-05-11T16:02:02.284Z,95971.66
2019-05-11T16:04:28.921Z,95936.12
2019-05-11T16:06:57.589Z,95940.23
2019-05-11T16:09:30.301Z,95929.88
2019-05-11T16:11:57.019Z,95907.68
2019-05-11T16:14:23.664Z,95914.87
2019-05-11T16:16:50.421Z,95930.47
2019-05-11T16:19:19.138Z,95911.55
2019-05-11T16:21:52.041Z,95900.53
2019-05-11T16:24:18.744Z,95941.73
2019-05-11T16:26:47.543Z,95938.33
2019-05-11T16:29:19.941Z,95940.02
2019-05-11T16:31:48.303Z,95948.75
2019-05-11T16:34:25.095Z,95946.12
2019-05-11T16:36:51.822Z,95947.47
2019-05-11T16:39:18.793Z,95933.63
2019-05-11T16:41:53.141Z,95921.78
2019-05-11T16:44:19.789Z,95920.96
2019-05-11T16:46:48.108Z,95923.41
2019-05-11T16:49:29.659Z,95935.41
2019-05-11T16:51:59.978Z,95949.86
2019-05-11T16:54:27.990Z,95952.94
2019-05-11T16:57:04.873Z,95948.87
2019-05-11T16:59:31.619Z,95953.11
2019-05-11T17:01:58.672Z,95949.93
2019-05-11T17:04:36.845Z,95949.89
2019-05-11T17:07:03.504Z,95955.34
2019-05-11T17:09:30.225Z,95967.13
2019-05-11T17:11:57.889Z,95969.28
2019-05-11T17:14:31.852Z,95966.91
2019-05-11T17:16:58.680Z,95964.02
2019-05-11T17:19:45.283Z,95964.30
2019-05-11T17:22:13.904Z,95960.97
2019-05-11T17:24:40.575Z,95973.31
2019-05-11T17:27:08.848Z,95975.97
2019-05-11T17:29:42.136Z,95972.67
2019-05-11T17:32:08.831Z,95971.54
2019-05-11T17:34:35.561Z,95981.45
2019-05-11T17:37:02.168Z,95981.36
2019-05-11T17:39:28.828Z,95983.72
2019-05-11T17:41:55.442Z,95994.68
2019-05-11T17:44:22.112Z,96000.55
2019-05-11T17:46:48.754Z,96009.95
2019-05-11T17:49:15.476Z,96015.04
2019-05-11T17:51:42.142Z,96022.73
2019-05-11T17:54:11.286Z,96019.95
2019-05-11T17:56:48.370Z,96024.66
2019-05-11T17:59:22.415Z,96027.06
2019-05-11T18:01:49.046Z,96026.48
2019-05-11T18:04:15.669Z,96031.05
2019-05-11T18:06:42.460Z,96032.11
2019-05-11T18:09:09.174Z,96033.19
2019-05-11T18:11:38.045Z,96025.92
2019-05-11T18:14:14.139Z,96033.45
2019-05-11T18:16:40.895Z,96031.38
2019-05-11T18:19:08.491Z,96040.74
2019-05-11T18:21:48.638Z,96052.06
2019-05-11T18:24:21.268Z,96052.87
2019-05-11T18:26:48.802Z,96043.23
2019-05-11T18:29:28.621Z,96048.31
2019-05-11T18:32:01.222Z,96043.76
2019-05-11T18:34:27.950Z,96042.66
2019-05-11T18:36:54.588Z,96042.94
2019-05-11T18:39:21.320Z,96055.32
2019-05-11T18:41:48.412Z,96069.81
2019-05-11T18:44:26.293Z,96081.38
2019-05-11T18:46:53.022Z,96099.08
2019-05-11T18:49:19.656Z,96101.72
2019-05-11T18:51:48.391Z,96101.20
2019-05-11T18:54:21.131Z,96103.40
2019-05-11T18:56:48.848Z,96114.48
2019-05-11T18:59:22.277Z,96113.42
2019-05-11T19:01:49.052Z,96118.56
2019-05-11T19:04:18.198Z,96121.01
2019-05-11T19:06:50.928Z,96124.80
2019-05-11T19:09:18.033Z,96124.31
2019-05-11T19:11:57.788Z,96116.03
2019-05-11T19:14:31.129Z,96126.83
2019-05-11T19:16:57.783Z,96130.91
2019-05-11T19:19:24.482Z,96126.59
2019-05-11T19:21:51.191Z,96133.55
2019-05-11T19:24:18.996Z,96130.81
2019-05-11T19:26:58.696Z,96132.92
2019-05-11T19:29:34.209Z,96138.19
2019-05-11T19:32:01.095Z,96129.50
2019-05-11T19:34:28.110Z,96135.88
2019-05-11T19:37:02.574Z,96133.67
2019-05-11T19:39:29.301Z,96137.30
2019-05-11T19:41:57.986Z,96136.44
2019-05-11T19:44:30.481Z,96140.46
2019-05-11T19:46:58.166Z,96139.55
2019-05-11T19:49:32.552Z,96137.63
2019-05-11T19:51:59.285Z,96133.87
2019-05-11T19:54:32.720Z,96135.75
2019-05-11T19:56:59.444Z,96130.60
2019-05-11T19:59:27.966Z,96134.87
2019-05-11T20:02:20.294Z,96127.63
2019-05-11T20:04:48.142Z,96123.88
2019-05-11T20:07:22.185Z,96135.50
2019-05-11T20:09:48.826Z,96142.21
2019-05-11T20:12:17.860Z,96141.12
2019-05-11T20:14:50.718Z,96132.83
2019-05-11T20:17:18.168Z,96142.23
2019-05-11T20:19:52.676Z,96143.80
2019-05-11T20:22:19.310Z,96145.91
2019-05-11T20:24:47.677Z,96151.51
2019-05-11T20:27:20.553Z,96157.12
2019-05-11T20:29:47.754Z,96155.77
2019-05-11T20:32:27.833Z,96157.36
2019-05-11T20:35:00.487Z,96161.86
2019-05-11T20:37:28.756Z,96168.05
2019-05-11T20:40:05.538Z,96172.59
2019-05-11T20:42:32.176Z,96175.28
2019-05-11T20:44:58.789Z,96175.58
2019-05-11T20:47:25.444Z,96179.89
2019-05-11T20:49:52.095Z,96177.20
2019-05-11T20:52:18.808Z,96180.18
2019-05-11T20:54:47.260Z,96178.08
2019-05-11T20:57:20.195Z,96178.78
2019-05-11T20:59:46.817Z,96172.02
2019-05-11T21:02:13.583Z,96169.86
2019-05-11T21:04:40.181Z,96173.65
2019-05-11T21:07:08.488Z,96167.23
2019-05-11T21:09:41.757Z,96166.98
2019-05-11T21:12:08.433Z,96172.65
2019-05-11T21:14:35.175Z,96178.08
2019-05-11T21:17:02.085Z,96178.66
2019-05-11T21:19:28.775Z,96180.00
2019-05-11T21:21:55.522Z,96180.81
2019-05-11T21:24:22.153Z,96180.77
2019-05-11T21:26:48.837Z,96187.95
2019-05-11T21:29:15.531Z,96180.84
2019-05-11T21:31:42.143Z,96188.31
2019-05-11T21:34:08.914Z,96194.47
2019-05-11T21:36:37.696Z,96192.84
2019-05-11T21:39:10.419Z,96200.84
2019-05-11T21:41:38.655Z,96200.50
2019-05-11T21:44:11.801Z,96205.86
2019-05-11T21:46:38.914Z,96210.94
2019-05-11T21:49:18.417Z,96213.57
2019-05-11T21:52:03.690Z,96209.02
2019-05-11T21:54:29.966Z,96211.70
2019-05-11T21:57:07.739Z,96208.44
2019-05-11T21:59:40.488Z,96214.86
2019-05-11T22:02:08.293Z,96213.22
2019-05-11T22:04:42.030Z,96215.91
2019-05-11T22:07:08.648Z,96222.62
2019-05-11T22:12:15.006Z,96221.05
2019-05-11T22:14:41.644Z,96222.44
2019-05-11T22:17:08.288Z,96218.36
2019-05-11T22:19:34.908Z,96215.97
2019-05-11T22:22:01.553Z,96217.83
2019-05-11T22:24:28.330Z,96203.53
2019-05-11T22:27:08.011Z,96198.67
2019-05-11T22:29:41.649Z,96198.92
2019-05-11T22:32:08.380Z,96196.80
2019-05-11T22:34:34.984Z,96206.42
2019-05-11T22:37:01.631Z,96214.48
2019-05-11T22:39:28.238Z,96210.92
2019-05-11T22:41:54.861Z,96211.68
2019-05-11T22:44:21.507Z,96222.88
2019-05-11T22:46:48.121Z,96225.86
2019-05-11T22:49:14.741Z,96222.13
2019-05-11T22:51:41.390Z,96224.28
2019-05-11T22:54:10.988Z,96225.16
2019-05-11T22:56:42.850Z,96231.81
2019-05-11T22:59:09.453Z,96233.97
2019-05-11T23:01:37.911Z,96234.03
2019-05-11T23:04:10.642Z,96227.09
2019-05-11T23:06:40.270Z,96231.93
2019-05-11T23:09:18.448Z,96225.51
2019-05-11T23:11:51.760Z,96220.31
2019-05-11T23:14:19.957Z,96214.89
2019-05-11T23:16:53.541Z,96221.08
2019-05-11T23:19:20.179Z,96233.50
2019-05-11T23:21:48.151Z,96233.45
2019-05-11T23:24:21.575Z,96235.84
2019-05-11T23:26:48.176Z,96240.91
2019-05-11T23:29:14.795Z,96251.36
2019-05-11T23:31:41.417Z,96255.09
2019-05-11T23:34:08.430Z,96259.12
2019-05-11T23:36:48.640Z,96266.06
2019-05-11T23:39:21.461Z,96263.08
2019-05-11T23:41:48.364Z,96256.90
2019-05-11T23:44:26.501Z,96264.13
2019-05-11T23:46:53.137Z,96254.38
2019-05-11T23:49:19.730Z,96256.02
2019-05-11T23:51:47.842Z,96263.02
2019-05-11T23:54:24.833Z,96256.02
2019-05-11T23:56:51.572Z,96252.05
2019-05-11T23:59:18.807Z,96248.78
